sensor_id;sensor_type;location;lat;lon;timestamp;temperature;humidity
23079;DHT22;11707;50.830;4.364;2023-02-18T00:01:25;10.70;99.90
23079;DHT22;11707;50.830;4.364;2023-02-18T00:03:51;10.70;99.90
23079;DHT22;11707;50.830;4.364;2023-02-18T00:06:20;10.70;99.90
23079;DHT22;11707;50.830;4.364;2023-02-18T00:08:47;10.70;99.90
23079;DHT22;11707;50.830;4.364;2023-02-18T00:11:14;10.80;99.90
23079;DHT22;11707;50.830;4.364;2023-02-18T00:13:40;10.80;99.90
23079;DHT22;11707;50.830;4.364;2023-02-18T00:16:09;10.90;99.90
23079;DHT22;11707;50.830;4.364;2023-02-18T00:18:35;10.90;99.90
23079;DHT22;11707;50.830;4.364;2023-02-18T00:21:06;10.90;99.90
23079;DHT22;11707;50.830;4.364;2023-02-18T00:23:32;10.80;99.90
23079;DHT22;11707;50.830;4.364;2023-02-18T00:26:07;10.70;99.90
23079;DHT22;11707;50.830;4.364;2023-02-18T00:28:33;10.90;99.90
23079;DHT22;11707;50.830;4.364;2023-02-18T00:31:28;10.80;99.90
23079;DHT22;11707;50.830;4.364;2023-02-18T00:33:50;10.70;99.90
23079;DHT22;11707;50.830;4.364;2023-02-18T00:36:18;10.70;99.90
23079;DHT22;11707;50.830;4.364;2023-02-18T00:38:49;10.60;99.90
23079;DHT22;11707;50.830;4.364;2023-02-18T00:41:15;10.70;99.90
23079;DHT22;11707;50.830;4.364;2023-02-18T00:43:41;10.70;99.90
23079;DHT22;11707;50.830;4.364;2023-02-18T00:46:07;10.70;99.90
23079;DHT22;11707;50.830;4.364;2023-02-18T00:48:33;10.60;99.90
23079;DHT22;11707;50.830;4.364;2023-02-18T00:51:02;10.60;99.90
23079;DHT22;11707;50.830;4.364;2023-02-18T00:53:28;10.60;99.90
23079;DHT22;11707;50.830;4.364;2023-02-18T00:55:54;10.60;99.90
23079;DHT22;11707;50.830;4.364;2023-02-18T00:58:20;10.60;99.90
23079;DHT22;11707;50.830;4.364;2023-02-18T01:00:46;10.50;99.90
23079;DHT22;11707;50.830;4.364;2023-02-18T01:03:12;10.50;99.90
23079;DHT22;11707;50.830;4.364;2023-02-18T01:05:38;10.50;99.90
23079;DHT22;11707;50.830;4.364;2023-02-18T01:08:06;10.60;99.90
23079;DHT22;11707;50.830;4.364;2023-02-18T01:10:32;10.50;99.90
23079;DHT22;11707;50.830;4.364;2023-02-18T01:12:58;10.60;99.90
23079;DHT22;11707;50.830;4.364;2023-02-18T01:15:24;10.60;99.90
23079;DHT22;11707;50.830;4.364;2023-02-18T01:17:50;10.60;99.90
23079;DHT22;11707;50.830;4.364;2023-02-18T01:20:16;10.50;99.90
23079;DHT22;11707;50.830;4.364;2023-02-18T01:22:42;10.50;99.90
23079;DHT22;11707;50.830;4.364;2023-02-18T01:25:10;10.50;99.90
23079;DHT22;11707;50.830;4.364;2023-02-18T01:27:36;10.60;99.90
23079;DHT22;11707;50.830;4.364;2023-02-18T01:30:06;10.50;99.90
23079;DHT22;11707;50.830;4.364;2023-02-18T01:32:33;10.50;99.90
23079;DHT22;11707;50.830;4.364;2023-02-18T01:35:03;10.60;99.90
23079;DHT22;11707;50.830;4.364;2023-02-18T01:37:29;10.60;99.90
23079;DHT22;11707;50.830;4.364;2023-02-18T01:39:55;10.50;99.90
23079;DHT22;11707;50.830;4.364;2023-02-18T01:42:24;10.50;99.90
23079;DHT22;11707;50.830;4.364;2023-02-18T01:44:50;10.40;99.90
23079;DHT22;11707;50.830;4.364;2023-02-18T01:47:17;10.50;99.90
23079;DHT22;11707;50.830;4.364;2023-02-18T01:49:46;10.50;99.90
23079;DHT22;11707;50.830;4.364;2023-02-18T01:52:19;10.50;99.90
23079;DHT22;11707;50.830;4.364;2023-02-18T01:54:51;10.40;99.90
23079;DHT22;11707;50.830;4.364;2023-02-18T01:57:30;10.40;99.90
23079;DHT22;11707;50.830;4.364;2023-02-18T02:00:13;10.40;99.90
23079;DHT22;11707;50.830;4.364;2023-02-18T02:02:43;10.30;99.90
23079;DHT22;11707;50.830;4.364;2023-02-18T02:05:10;10.30;99.90
23079;DHT22;11707;50.830;4.364;2023-02-18T02:07:36;10.40;99.90
23079;DHT22;11707;50.830;4.364;2023-02-18T02:10:02;10.40;99.90
23079;DHT22;11707;50.830;4.364;2023-02-18T02:23:40;10.30;99.90
23079;DHT22;11707;50.830;4.364;2023-02-18T02:40:25;10.30;99.90
23079;DHT22;11707;50.830;4.364;2023-02-18T02:45:55;10.30;99.90
23079;DHT22;11707;50.830;4.364;2023-02-18T02:48:36;10.40;99.90
23079;DHT22;11707;50.830;4.364;2023-02-18T02:51:08;10.30;99.90
23079;DHT22;11707;50.830;4.364;2023-02-18T02:53:36;10.30;99.90
23079;DHT22;11707;50.830;4.364;2023-02-18T02:56:04;10.30;99.90
23079;DHT22;11707;50.830;4.364;2023-02-18T02:58:30;10.30;99.90
23079;DHT22;11707;50.830;4.364;2023-02-18T03:01:08;10.30;99.90
23079;DHT22;11707;50.830;4.364;2023-02-18T03:09:21;10.30;99.90
23079;DHT22;11707;50.830;4.364;2023-02-18T03:14:49;10.30;99.90
23079;DHT22;11707;50.830;4.364;2023-02-18T03:17:27;10.30;99.90
23079;DHT22;11707;50.830;4.364;2023-02-18T03:20:01;10.20;99.90
23079;DHT22;11707;50.830;4.364;2023-02-18T03:22:33;10.20;99.90
23079;DHT22;11707;50.830;4.364;2023-02-18T03:25:03;10.20;99.90
23079;DHT22;11707;50.830;4.364;2023-02-18T03:27:32;10.20;99.90
23079;DHT22;11707;50.830;4.364;2023-02-18T03:32:48;10.10;99.90
23079;DHT22;11707;50.830;4.364;2023-02-18T03:35:17;10.20;99.90
23079;DHT22;11707;50.830;4.364;2023-02-18T03:38:16;10.20;99.90
23079;DHT22;11707;50.830;4.364;2023-02-18T03:40:40;10.10;99.90
23079;DHT22;11707;50.830;4.364;2023-02-18T03:43:05;10.10;99.90
23079;DHT22;11707;50.830;4.364;2023-02-18T03:45:31;10.10;99.90
23079;DHT22;11707;50.830;4.364;2023-02-18T03:47:57;10.10;99.90
23079;DHT22;11707;50.830;4.364;2023-02-18T03:50:22;10.10;99.90
23079;DHT22;11707;50.830;4.364;2023-02-18T03:52:48;10.10;99.90
23079;DHT22;11707;50.830;4.364;2023-02-18T03:55:15;10.10;99.90
23079;DHT22;11707;50.830;4.364;2023-02-18T03:57:41;10.10;99.90
23079;DHT22;11707;50.830;4.364;2023-02-18T04:00:07;10.00;99.90
23079;DHT22;11707;50.830;4.364;2023-02-18T04:02:33;10.10;99.90
23079;DHT22;11707;50.830;4.364;2023-02-18T04:04:59;10.10;99.90
23079;DHT22;11707;50.830;4.364;2023-02-18T04:07:25;10.10;99.90
23079;DHT22;11707;50.830;4.364;2023-02-18T04:09:50;10.10;99.90
23079;DHT22;11707;50.830;4.364;2023-02-18T04:12:16;10.10;99.90
23079;DHT22;11707;50.830;4.364;2023-02-18T04:14:42;10.00;99.90
23079;DHT22;11707;50.830;4.364;2023-02-18T04:17:07;10.10;99.90
23079;DHT22;11707;50.830;4.364;2023-02-18T04:19:34;10.10;99.90
23079;DHT22;11707;50.830;4.364;2023-02-18T04:22:00;10.00;99.90
23079;DHT22;11707;50.830;4.364;2023-02-18T04:24:26;10.00;99.90
23079;DHT22;11707;50.830;4.364;2023-02-18T04:26:52;10.00;99.90
23079;DHT22;11707;50.830;4.364;2023-02-18T04:29:18;10.00;99.90
23079;DHT22;11707;50.830;4.364;2023-02-18T04:31:43;10.00;99.90
23079;DHT22;11707;50.830;4.364;2023-02-18T04:34:09;10.00;99.90
23079;DHT22;11707;50.830;4.364;2023-02-18T04:36:35;10.00;99.90
23079;DHT22;11707;50.830;4.364;2023-02-18T04:39:01;10.00;99.90
23079;DHT22;11707;50.830;4.364;2023-02-18T04:41:26;9.90;99.90
23079;DHT22;11707;50.830;4.364;2023-02-18T04:43:52;10.00;99.90
23079;DHT22;11707;50.830;4.364;2023-02-18T04:46:18;10.00;99.90
23079;DHT22;11707;50.830;4.364;2023-02-18T04:48:43;10.00;99.90
23079;DHT22;11707;50.830;4.364;2023-02-18T04:51:09;10.00;99.90
23079;DHT22;11707;50.830;4.364;2023-02-18T04:53:35;10.00;99.90
23079;DHT22;11707;50.830;4.364;2023-02-18T04:56:01;9.90;99.90
23079;DHT22;11707;50.830;4.364;2023-02-18T04:58:26;9.90;99.90
23079;DHT22;11707;50.830;4.364;2023-02-18T05:00:52;9.90;99.90
23079;DHT22;11707;50.830;4.364;2023-02-18T05:03:18;9.90;99.90
23079;DHT22;11707;50.830;4.364;2023-02-18T05:05:44;9.80;99.90
23079;DHT22;11707;50.830;4.364;2023-02-18T05:08:10;9.90;99.90
23079;DHT22;11707;50.830;4.364;2023-02-18T05:10:37;9.80;99.90
23079;DHT22;11707;50.830;4.364;2023-02-18T05:13:03;9.90;99.90
23079;DHT22;11707;50.830;4.364;2023-02-18T05:15:29;9.90;99.90
23079;DHT22;11707;50.830;4.364;2023-02-18T05:17:54;9.90;99.90
23079;DHT22;11707;50.830;4.364;2023-02-18T05:20:20;9.80;99.90
23079;DHT22;11707;50.830;4.364;2023-02-18T05:22:46;9.80;99.90
23079;DHT22;11707;50.830;4.364;2023-02-18T05:25:12;9.80;99.90
23079;DHT22;11707;50.830;4.364;2023-02-18T05:27:38;9.80;99.90
23079;DHT22;11707;50.830;4.364;2023-02-18T05:30:04;9.80;99.90
23079;DHT22;11707;50.830;4.364;2023-02-18T05:32:29;9.70;99.90
23079;DHT22;11707;50.830;4.364;2023-02-18T05:34:55;9.70;99.90
23079;DHT22;11707;50.830;4.364;2023-02-18T05:37:21;9.70;99.90
23079;DHT22;11707;50.830;4.364;2023-02-18T05:39:47;9.70;99.90
23079;DHT22;11707;50.830;4.364;2023-02-18T05:42:12;9.70;99.90
23079;DHT22;11707;50.830;4.364;2023-02-18T05:44:38;9.70;99.90
23079;DHT22;11707;50.830;4.364;2023-02-18T05:47:07;9.70;99.90
23079;DHT22;11707;50.830;4.364;2023-02-18T05:49:33;9.70;99.90
23079;DHT22;11707;50.830;4.364;2023-02-18T05:52:00;9.70;99.90
23079;DHT22;11707;50.830;4.364;2023-02-18T05:54:26;9.70;99.90
23079;DHT22;11707;50.830;4.364;2023-02-18T05:56:53;9.70;99.90
23079;DHT22;11707;50.830;4.364;2023-02-18T05:59:19;9.70;99.90
23079;DHT22;11707;50.830;4.364;2023-02-18T06:01:46;9.70;99.90
23079;DHT22;11707;50.830;4.364;2023-02-18T06:04:12;9.70;99.90
23079;DHT22;11707;50.830;4.364;2023-02-18T06:06:38;9.80;99.90
23079;DHT22;11707;50.830;4.364;2023-02-18T06:09:04;9.80;99.90
23079;DHT22;11707;50.830;4.364;2023-02-18T06:11:30;9.80;99.90
23079;DHT22;11707;50.830;4.364;2023-02-18T06:13:56;9.80;99.90
23079;DHT22;11707;50.830;4.364;2023-02-18T06:16:22;9.80;99.90
23079;DHT22;11707;50.830;4.364;2023-02-18T06:18:48;9.90;99.90
23079;DHT22;11707;50.830;4.364;2023-02-18T06:21:14;9.80;99.90
23079;DHT22;11707;50.830;4.364;2023-02-18T06:23:39;9.90;99.90
23079;DHT22;11707;50.830;4.364;2023-02-18T06:26:05;9.90;99.90
23079;DHT22;11707;50.830;4.364;2023-02-18T06:28:31;9.90;99.90
23079;DHT22;11707;50.830;4.364;2023-02-18T06:30:57;9.90;99.90
23079;DHT22;11707;50.830;4.364;2023-02-18T06:33:23;9.90;99.90
23079;DHT22;11707;50.830;4.364;2023-02-18T06:36:03;9.90;99.90
23079;DHT22;11707;50.830;4.364;2023-02-18T06:38:35;9.90;99.90
23079;DHT22;11707;50.830;4.364;2023-02-18T06:41:01;9.80;99.90
23079;DHT22;11707;50.830;4.364;2023-02-18T06:43:27;9.80;99.90
23079;DHT22;11707;50.830;4.364;2023-02-18T06:45:52;9.80;99.90
23079;DHT22;11707;50.830;4.364;2023-02-18T06:48:18;9.90;99.90
23079;DHT22;11707;50.830;4.364;2023-02-18T06:50:44;9.80;99.90
23079;DHT22;11707;50.830;4.364;2023-02-18T06:53:11;9.80;99.90
23079;DHT22;11707;50.830;4.364;2023-02-18T06:55:37;9.90;99.90
23079;DHT22;11707;50.830;4.364;2023-02-18T06:58:03;9.90;99.90
23079;DHT22;11707;50.830;4.364;2023-02-18T07:00:29;9.90;99.90
23079;DHT22;11707;50.830;4.364;2023-02-18T07:02:55;9.90;99.90
23079;DHT22;11707;50.830;4.364;2023-02-18T07:05:21;9.90;99.90
23079;DHT22;11707;50.830;4.364;2023-02-18T07:07:46;9.80;99.90
23079;DHT22;11707;50.830;4.364;2023-02-18T07:10:12;9.80;99.90
23079;DHT22;11707;50.830;4.364;2023-02-18T07:12:38;9.80;99.90
23079;DHT22;11707;50.830;4.364;2023-02-18T07:15:04;9.80;99.90
23079;DHT22;11707;50.830;4.364;2023-02-18T07:17:30;9.80;99.90
23079;DHT22;11707;50.830;4.364;2023-02-18T07:19:55;9.80;99.90
23079;DHT22;11707;50.830;4.364;2023-02-18T07:22:21;9.80;99.90
23079;DHT22;11707;50.830;4.364;2023-02-18T07:24:51;9.90;99.90
23079;DHT22;11707;50.830;4.364;2023-02-18T07:27:17;9.80;99.90
23079;DHT22;11707;50.830;4.364;2023-02-18T07:29:43;9.80;99.90
23079;DHT22;11707;50.830;4.364;2023-02-18T07:32:11;9.70;99.90
23079;DHT22;11707;50.830;4.364;2023-02-18T07:34:37;9.70;99.90
23079;DHT22;11707;50.830;4.364;2023-02-18T07:37:03;9.70;99.90
23079;DHT22;11707;50.830;4.364;2023-02-18T07:39:40;9.70;99.90
23079;DHT22;11707;50.830;4.364;2023-02-18T07:42:06;9.80;99.90
23079;DHT22;11707;50.830;4.364;2023-02-18T07:44:32;9.70;99.90
23079;DHT22;11707;50.830;4.364;2023-02-18T07:46:58;9.80;99.90
23079;DHT22;11707;50.830;4.364;2023-02-18T07:49:24;9.80;99.90
23079;DHT22;11707;50.830;4.364;2023-02-18T07:51:50;9.90;99.90
23079;DHT22;11707;50.830;4.364;2023-02-18T07:54:16;10.00;99.90
23079;DHT22;11707;50.830;4.364;2023-02-18T07:56:43;10.00;99.90
23079;DHT22;11707;50.830;4.364;2023-02-18T07:59:09;10.00;99.90
23079;DHT22;11707;50.830;4.364;2023-02-18T08:01:35;10.00;99.90
23079;DHT22;11707;50.830;4.364;2023-02-18T08:04:01;10.00;99.90
23079;DHT22;11707;50.830;4.364;2023-02-18T08:06:41;10.00;99.90
23079;DHT22;11707;50.830;4.364;2023-02-18T08:09:07;10.00;99.90
23079;DHT22;11707;50.830;4.364;2023-02-18T08:11:33;10.00;99.90
23079;DHT22;11707;50.830;4.364;2023-02-18T08:13:59;10.10;99.90
23079;DHT22;11707;50.830;4.364;2023-02-18T08:16:25;10.10;99.90
23079;DHT22;11707;50.830;4.364;2023-02-18T08:18:51;10.10;99.90
23079;DHT22;11707;50.830;4.364;2023-02-18T08:21:20;10.10;99.90
23079;DHT22;11707;50.830;4.364;2023-02-18T08:23:46;10.10;99.90
23079;DHT22;11707;50.830;4.364;2023-02-18T08:26:12;10.20;99.90
23079;DHT22;11707;50.830;4.364;2023-02-18T08:28:38;10.20;99.90
23079;DHT22;11707;50.830;4.364;2023-02-18T08:31:04;10.20;99.90
23079;DHT22;11707;50.830;4.364;2023-02-18T08:33:30;10.20;99.90
23079;DHT22;11707;50.830;4.364;2023-02-18T08:35:57;10.30;99.90
23079;DHT22;11707;50.830;4.364;2023-02-18T08:38:23;10.30;99.90
23079;DHT22;11707;50.830;4.364;2023-02-18T08:40:49;10.30;99.90
23079;DHT22;11707;50.830;4.364;2023-02-18T08:43:16;10.30;99.90
23079;DHT22;11707;50.830;4.364;2023-02-18T08:45:43;10.30;99.90
23079;DHT22;11707;50.830;4.364;2023-02-18T08:48:11;10.30;99.90
23079;DHT22;11707;50.830;4.364;2023-02-18T08:50:38;10.30;99.90
23079;DHT22;11707;50.830;4.364;2023-02-18T08:53:04;10.30;99.90
23079;DHT22;11707;50.830;4.364;2023-02-18T08:55:31;10.30;99.90
23079;DHT22;11707;50.830;4.364;2023-02-18T08:57:57;10.30;99.90
23079;DHT22;11707;50.830;4.364;2023-02-18T09:00:23;10.30;99.90
23079;DHT22;11707;50.830;4.364;2023-02-18T09:02:49;10.40;99.90
23079;DHT22;11707;50.830;4.364;2023-02-18T09:05:15;10.40;99.90
23079;DHT22;11707;50.830;4.364;2023-02-18T09:07:41;10.40;99.90
23079;DHT22;11707;50.830;4.364;2023-02-18T09:10:07;10.40;99.90
23079;DHT22;11707;50.830;4.364;2023-02-18T09:12:38;10.50;99.90
23079;DHT22;11707;50.830;4.364;2023-02-18T09:15:04;10.40;99.90
23079;DHT22;11707;50.830;4.364;2023-02-18T09:17:30;10.50;99.90
23079;DHT22;11707;50.830;4.364;2023-02-18T09:19:56;10.40;99.90
23079;DHT22;11707;50.830;4.364;2023-02-18T09:22:22;10.40;99.90
23079;DHT22;11707;50.830;4.364;2023-02-18T09:24:50;10.50;99.90
23079;DHT22;11707;50.830;4.364;2023-02-18T09:27:16;10.50;99.90
23079;DHT22;11707;50.830;4.364;2023-02-18T09:29:42;10.50;99.90
23079;DHT22;11707;50.830;4.364;2023-02-18T09:32:11;10.40;99.90
23079;DHT22;11707;50.830;4.364;2023-02-18T09:34:37;10.40;99.90
23079;DHT22;11707;50.830;4.364;2023-02-18T09:37:03;10.50;99.90
23079;DHT22;11707;50.830;4.364;2023-02-18T09:39:29;10.50;99.90
23079;DHT22;11707;50.830;4.364;2023-02-18T09:42:02;10.50;99.90
23079;DHT22;11707;50.830;4.364;2023-02-18T09:44:42;10.60;99.90
23079;DHT22;11707;50.830;4.364;2023-02-18T09:49:37;10.50;99.90
23079;DHT22;11707;50.830;4.364;2023-02-18T09:52:23;10.50;99.90
23079;DHT22;11707;50.830;4.364;2023-02-18T09:54:50;10.60;99.90
23079;DHT22;11707;50.830;4.364;2023-02-18T09:57:26;10.60;99.90
23079;DHT22;11707;50.830;4.364;2023-02-18T09:59:59;10.60;99.90
23079;DHT22;11707;50.830;4.364;2023-02-18T10:02:26;10.60;99.90
23079;DHT22;11707;50.830;4.364;2023-02-18T10:04:52;10.60;99.90
23079;DHT22;11707;50.830;4.364;2023-02-18T10:07:23;10.60;99.90
23079;DHT22;11707;50.830;4.364;2023-02-18T10:09:52;10.50;99.90
23079;DHT22;11707;50.830;4.364;2023-02-18T10:12:21;10.50;99.90
23079;DHT22;11707;50.830;4.364;2023-02-18T10:14:53;10.60;99.90
23079;DHT22;11707;50.830;4.364;2023-02-18T10:17:22;10.60;99.90
23079;DHT22;11707;50.830;4.364;2023-02-18T10:19:50;10.60;99.90
23079;DHT22;11707;50.830;4.364;2023-02-18T10:22:17;10.70;99.90
23079;DHT22;11707;50.830;4.364;2023-02-18T10:24:53;10.70;99.90
23079;DHT22;11707;50.830;4.364;2023-02-18T10:27:25;10.80;99.90
23079;DHT22;11707;50.830;4.364;2023-02-18T10:32:42;10.80;99.90
23079;DHT22;11707;50.830;4.364;2023-02-18T10:51:22;10.80;99.90
23079;DHT22;11707;50.830;4.364;2023-02-18T10:53:51;10.90;99.90
23079;DHT22;11707;50.830;4.364;2023-02-18T11:01:43;10.90;99.90
23079;DHT22;11707;50.830;4.364;2023-02-18T11:04:16;10.90;99.90
23079;DHT22;11707;50.830;4.364;2023-02-18T11:06:44;10.90;99.90
23079;DHT22;11707;50.830;4.364;2023-02-18T11:09:26;10.90;99.90
23079;DHT22;11707;50.830;4.364;2023-02-18T11:12:02;11.00;99.90
23079;DHT22;11707;50.830;4.364;2023-02-18T11:14:46;11.00;99.90
23079;DHT22;11707;50.830;4.364;2023-02-18T11:19:42;11.00;99.90
23079;DHT22;11707;50.830;4.364;2023-02-18T11:22:21;11.00;99.90
23079;DHT22;11707;50.830;4.364;2023-02-18T11:24:50;11.10;99.90
23079;DHT22;11707;50.830;4.364;2023-02-18T11:27:31;11.10;99.90
23079;DHT22;11707;50.830;4.364;2023-02-18T11:30:05;11.10;99.90
23079;DHT22;11707;50.830;4.364;2023-02-18T11:32:34;11.10;99.90
23079;DHT22;11707;50.830;4.364;2023-02-18T11:35:02;11.10;99.90
23079;DHT22;11707;50.830;4.364;2023-02-18T11:37:31;11.20;99.90
23079;DHT22;11707;50.830;4.364;2023-02-18T11:39:58;11.20;99.90
23079;DHT22;11707;50.830;4.364;2023-02-18T11:42:25;11.20;99.90
23079;DHT22;11707;50.830;4.364;2023-02-18T11:44:52;11.20;99.90
23079;DHT22;11707;50.830;4.364;2023-02-18T11:47:34;11.10;99.90
23079;DHT22;11707;50.830;4.364;2023-02-18T11:52:40;11.20;99.90
23079;DHT22;11707;50.830;4.364;2023-02-18T11:55:27;11.30;99.90
23079;DHT22;11707;50.830;4.364;2023-02-18T11:58:00;11.30;99.90
23079;DHT22;11707;50.830;4.364;2023-02-18T12:00:41;11.30;99.90
23079;DHT22;11707;50.830;4.364;2023-02-18T12:03:29;11.30;99.90
23079;DHT22;11707;50.830;4.364;2023-02-18T12:06:02;11.40;99.90
23079;DHT22;11707;50.830;4.364;2023-02-18T12:08:44;11.40;99.90
23079;DHT22;11707;50.830;4.364;2023-02-18T12:11:20;11.30;99.90
23079;DHT22;11707;50.830;4.364;2023-02-18T12:13:52;11.40;99.90
23079;DHT22;11707;50.830;4.364;2023-02-18T12:19:54;11.40;99.90
23079;DHT22;11707;50.830;4.364;2023-02-18T12:33:57;11.40;99.90
23079;DHT22;11707;50.830;4.364;2023-02-18T12:52:46;11.60;99.90
23079;DHT22;11707;50.830;4.364;2023-02-18T13:06:00;11.30;99.90
23079;DHT22;11707;50.830;4.364;2023-02-18T13:09:02;11.20;99.90
23079;DHT22;11707;50.830;4.364;2023-02-18T13:11:59;11.10;99.90
23079;DHT22;11707;50.830;4.364;2023-02-18T13:14:30;10.90;99.90
23079;DHT22;11707;50.830;4.364;2023-02-18T13:16:59;10.90;99.90
23079;DHT22;11707;50.830;4.364;2023-02-18T13:19:33;10.80;99.90
23079;DHT22;11707;50.830;4.364;2023-02-18T13:22:05;10.70;99.90
23079;DHT22;11707;50.830;4.364;2023-02-18T13:24:38;10.70;99.90
23079;DHT22;11707;50.830;4.364;2023-02-18T13:29:52;10.60;99.90
23079;DHT22;11707;50.830;4.364;2023-02-18T13:36:04;10.60;99.90
23079;DHT22;11707;50.830;4.364;2023-02-18T13:41:04;10.60;99.90
23079;DHT22;11707;50.830;4.364;2023-02-18T13:43:35;10.60;99.90
23079;DHT22;11707;50.830;4.364;2023-02-18T13:48:43;10.60;99.90
23079;DHT22;11707;50.830;4.364;2023-02-18T13:51:10;10.60;99.90
23079;DHT22;11707;50.830;4.364;2023-02-18T13:53:40;10.50;99.90
23079;DHT22;11707;50.830;4.364;2023-02-18T13:56:21;10.50;99.90
23079;DHT22;11707;50.830;4.364;2023-02-18T13:59:10;10.40;99.90
23079;DHT22;11707;50.830;4.364;2023-02-18T14:01:49;10.40;99.90
23079;DHT22;11707;50.830;4.364;2023-02-18T14:04:55;10.40;99.90
23079;DHT22;11707;50.830;4.364;2023-02-18T14:10:13;10.30;99.90
23079;DHT22;11707;50.830;4.364;2023-02-18T14:25:54;10.30;99.90
23079;DHT22;11707;50.830;4.364;2023-02-18T14:31:05;10.30;99.90
23079;DHT22;11707;50.830;4.364;2023-02-18T14:34:10;10.40;99.90
23079;DHT22;11707;50.830;4.364;2023-02-18T14:39:42;10.40;99.90
23079;DHT22;11707;50.830;4.364;2023-02-18T14:47:57;10.50;99.90
23079;DHT22;11707;50.830;4.364;2023-02-18T14:50:24;10.50;99.90
23079;DHT22;11707;50.830;4.364;2023-02-18T14:52:54;10.50;99.90
23079;DHT22;11707;50.830;4.364;2023-02-18T14:55:28;10.50;99.90
23079;DHT22;11707;50.830;4.364;2023-02-18T15:00:29;10.60;99.90
23079;DHT22;11707;50.830;4.364;2023-02-18T15:02:59;10.60;99.90
23079;DHT22;11707;50.830;4.364;2023-02-18T15:05:28;10.70;99.90
23079;DHT22;11707;50.830;4.364;2023-02-18T15:08:02;10.70;99.90
23079;DHT22;11707;50.830;4.364;2023-02-18T15:10:41;10.60;99.90
23079;DHT22;11707;50.830;4.364;2023-02-18T15:13:18;10.70;99.90
23079;DHT22;11707;50.830;4.364;2023-02-18T15:15:49;10.70;99.90
23079;DHT22;11707;50.830;4.364;2023-02-18T15:18:40;10.70;99.90
23079;DHT22;11707;50.830;4.364;2023-02-18T15:23:50;10.70;99.90
23079;DHT22;11707;50.830;4.364;2023-02-18T15:26:16;10.70;99.90
23079;DHT22;11707;50.830;4.364;2023-02-18T15:29:03;10.70;99.90
23079;DHT22;11707;50.830;4.364;2023-02-18T15:31:34;10.70;99.90
23079;DHT22;11707;50.830;4.364;2023-02-18T15:34:01;10.70;99.90
23079;DHT22;11707;50.830;4.364;2023-02-18T15:36:27;10.70;99.90
23079;DHT22;11707;50.830;4.364;2023-02-18T15:38:55;10.70;99.90
23079;DHT22;11707;50.830;4.364;2023-02-18T15:41:21;10.60;99.90
23079;DHT22;11707;50.830;4.364;2023-02-18T15:44:06;10.70;99.90
23079;DHT22;11707;50.830;4.364;2023-02-18T15:46:33;10.60;99.90
23079;DHT22;11707;50.830;4.364;2023-02-18T15:49:00;10.60;99.90
23079;DHT22;11707;50.830;4.364;2023-02-18T15:51:29;10.60;99.90
23079;DHT22;11707;50.830;4.364;2023-02-18T15:53:59;10.60;99.90
23079;DHT22;11707;50.830;4.364;2023-02-18T15:59:27;10.60;99.90
23079;DHT22;11707;50.830;4.364;2023-02-18T16:02:21;10.60;99.90
23079;DHT22;11707;50.830;4.364;2023-02-18T16:05:13;10.60;99.90
23079;DHT22;11707;50.830;4.364;2023-02-18T16:07:51;10.70;99.90
23079;DHT22;11707;50.830;4.364;2023-02-18T16:13:22;10.80;99.90
23079;DHT22;11707;50.830;4.364;2023-02-18T16:15:50;10.70;99.90
23079;DHT22;11707;50.830;4.364;2023-02-18T16:18:21;10.80;99.90
23079;DHT22;11707;50.830;4.364;2023-02-18T16:21:03;10.70;99.90
23079;DHT22;11707;50.830;4.364;2023-02-18T16:23:41;10.70;99.90
23079;DHT22;11707;50.830;4.364;2023-02-18T16:29:24;10.70;99.90
23079;DHT22;11707;50.830;4.364;2023-02-18T16:31:50;10.70;99.90
23079;DHT22;11707;50.830;4.364;2023-02-18T16:34:15;10.70;99.90
23079;DHT22;11707;50.830;4.364;2023-02-18T16:36:42;10.70;99.90
23079;DHT22;11707;50.830;4.364;2023-02-18T16:39:32;10.70;99.90
23079;DHT22;11707;50.830;4.364;2023-02-18T16:41:58;10.70;99.90
23079;DHT22;11707;50.830;4.364;2023-02-18T16:44:23;10.80;99.90
23079;DHT22;11707;50.830;4.364;2023-02-18T16:46:49;10.80;99.90
23079;DHT22;11707;50.830;4.364;2023-02-18T16:49:16;10.80;99.90
23079;DHT22;11707;50.830;4.364;2023-02-18T16:51:42;10.80;99.90
23079;DHT22;11707;50.830;4.364;2023-02-18T16:54:12;10.80;99.90
23079;DHT22;11707;50.830;4.364;2023-02-18T16:56:39;10.80;99.90
23079;DHT22;11707;50.830;4.364;2023-02-18T16:59:05;10.80;99.90
23079;DHT22;11707;50.830;4.364;2023-02-18T17:01:36;10.80;99.90
23079;DHT22;11707;50.830;4.364;2023-02-18T17:04:06;10.80;99.90
23079;DHT22;11707;50.830;4.364;2023-02-18T17:06:32;10.80;99.90
23079;DHT22;11707;50.830;4.364;2023-02-18T17:08:58;10.70;99.90
23079;DHT22;11707;50.830;4.364;2023-02-18T17:11:29;10.70;99.90
23079;DHT22;11707;50.830;4.364;2023-02-18T17:13:55;10.70;99.90
23079;DHT22;11707;50.830;4.364;2023-02-18T17:16:24;10.70;99.90
23079;DHT22;11707;50.830;4.364;2023-02-18T17:18:50;10.70;99.90
23079;DHT22;11707;50.830;4.364;2023-02-18T17:21:19;10.70;99.90
23079;DHT22;11707;50.830;4.364;2023-02-18T17:23:45;10.70;99.90
23079;DHT22;11707;50.830;4.364;2023-02-18T17:26:20;10.70;99.90
23079;DHT22;11707;50.830;4.364;2023-02-18T17:28:47;10.70;99.90
23079;DHT22;11707;50.830;4.364;2023-02-18T17:33:54;10.70;99.90
23079;DHT22;11707;50.830;4.364;2023-02-18T17:36:20;10.60;99.90
23079;DHT22;11707;50.830;4.364;2023-02-18T17:38:46;10.70;99.90
23079;DHT22;11707;50.830;4.364;2023-02-18T17:41:14;10.70;99.90
23079;DHT22;11707;50.830;4.364;2023-02-18T17:43:40;10.80;99.90
23079;DHT22;11707;50.830;4.364;2023-02-18T17:46:11;10.70;99.90
23079;DHT22;11707;50.830;4.364;2023-02-18T17:48:38;10.70;99.90
23079;DHT22;11707;50.830;4.364;2023-02-18T17:51:04;10.60;99.90
23079;DHT22;11707;50.830;4.364;2023-02-18T17:53:34;10.60;99.90
23079;DHT22;11707;50.830;4.364;2023-02-18T17:55:59;10.60;99.90
23079;DHT22;11707;50.830;4.364;2023-02-18T17:58:25;10.70;99.90
23079;DHT22;11707;50.830;4.364;2023-02-18T18:00:55;10.70;99.90
23079;DHT22;11707;50.830;4.364;2023-02-18T18:03:22;10.60;99.90
23079;DHT22;11707;50.830;4.364;2023-02-18T18:05:49;10.60;99.90
23079;DHT22;11707;50.830;4.364;2023-02-18T18:08:17;10.60;99.90
23079;DHT22;11707;50.830;4.364;2023-02-18T18:10:49;10.60;99.90
23079;DHT22;11707;50.830;4.364;2023-02-18T18:13:27;10.60;99.90
23079;DHT22;11707;50.830;4.364;2023-02-18T18:15:53;10.40;99.90
23079;DHT22;11707;50.830;4.364;2023-02-18T18:18:19;10.40;99.90
23079;DHT22;11707;50.830;4.364;2023-02-18T18:20:50;10.40;99.90
23079;DHT22;11707;50.830;4.364;2023-02-18T18:23:19;10.30;99.90
23079;DHT22;11707;50.830;4.364;2023-02-18T18:25:47;10.30;99.90
23079;DHT22;11707;50.830;4.364;2023-02-18T18:28:14;10.20;99.90
23079;DHT22;11707;50.830;4.364;2023-02-18T18:30:43;10.30;99.90
23079;DHT22;11707;50.830;4.364;2023-02-18T18:35:45;10.30;99.90
23079;DHT22;11707;50.830;4.364;2023-02-18T18:38:13;10.30;99.90
23079;DHT22;11707;50.830;4.364;2023-02-18T18:40:39;10.30;99.90